Terminal Aerodrome Forecast
Issued by NWS

Home | Current Version | Previous Version | Text Only | Print | Product List | Glossary On
Versions: 1 2 3 4 5 6 7 8 9 10 11 12 13 14
000
FTUS45 KGJT 202329
TAFEGE
TAF
KEGE 202329Z 2100/2124 32006KT P6SM SCT090 BKN200
     FM210300 09004KT P6SM SCT080 BKN200
     FM210900 VRB03KT P6SM SCT200
     FM211900 32004KT P6SM FEW100 SCT200
     FM212200 34008KT P6SM SCT110 BKN200
      AMD LTD TO CLD VIS AND WIND 2101/2113=

USA.gov is the U.S. government's official web portal to all federal, state and local government web resources and services.